Time;durP1;ratioP1;P1;durP2;ratioP2;P2;SDS_P1;SDS_P2;PMS_P1;PMS_P2;Temp;Humidity;BMP_temperature;BMP_pressure;BME280_temperature;BME280_humidity;BME280_pressure;Samples;Min_cycle;Max_cycle;Signal;HPM_P1;HPM_P2
2022/12/28 00:02:02;;;;;;;;;;;5.40;99.90;;;;;;5010356;28;19929;-77
2022/12/28 00:04:28;;;;;;;;;;;5.40;99.90;;;;;;5009993;28;19933;-77
2022/12/28 00:06:53;;;;;;;;;;;5.40;99.90;;;;;;5010386;28;19925;-77
2022/12/28 00:09:19;;;;;;;;;;;5.40;99.90;;;;;;5009337;28;19944;-77
2022/12/28 00:11:44;;;;;;;;;;;5.40;99.90;;;;;;5013804;28;20459;-77
2022/12/28 00:14:10;;;;;;;;;;;5.40;99.90;;;;;;5009768;28;19933;-77
2022/12/28 00:16:39;;;;;;;;;;;5.40;99.90;;;;;;5012489;28;19929;-77
2022/12/28 00:19:07;;;;;;;;;;;5.30;99.90;;;;;;5010532;28;19926;-76
2022/12/28 00:21:33;;;;;;;;;;;5.40;99.90;;;;;;5008799;28;19929;-77
2022/12/28 00:23:59;;;;;;;;;;;5.40;99.90;;;;;;5008158;28;19972;-77
2022/12/28 00:26:26;;;;;;;;;;;5.30;99.90;;;;;;5011418;28;19925;-77
2022/12/28 00:28:51;;;;;;;;;;;5.40;99.90;;;;;;5009622;28;19996;-77
2022/12/28 00:31:17;;;;;;;;;;;5.40;99.90;;;;;;5007344;28;19972;-77
2022/12/28 00:33:43;;;;;;;;;;;5.40;99.90;;;;;;5009582;28;19929;-77
2022/12/28 00:36:10;;;;;;;;;;;5.30;99.90;;;;;;5010592;28;19933;-77
2022/12/28 00:38:37;;;;;;;;;;;5.30;99.90;;;;;;5009234;28;19933;-77
2022/12/28 00:41:03;;;;;;;;;;;5.30;99.90;;;;;;5012636;28;19925;-77
2022/12/28 00:43:28;;;;;;;;;;;5.30;99.90;;;;;;5011246;28;19930;-77
2022/12/28 00:45:54;;;;;;;;;;;5.30;99.90;;;;;;5012828;28;19936;-77
2022/12/28 00:48:20;;;;;;;;;;;5.30;99.90;;;;;;5015475;28;20019;-77
2022/12/28 00:50:45;;;;;;;;;;;5.30;99.90;;;;;;5008339;28;19925;-77
2022/12/28 00:53:11;;;;;;;;;;;5.30;99.90;;;;;;5014527;28;19973;-77
2022/12/28 00:55:37;;;;;;;;;;;5.40;99.90;;;;;;5010080;28;19941;-77
2022/12/28 00:58:03;;;;;;;;;;;5.30;99.90;;;;;;5010639;28;20018;-77
2022/12/28 01:00:29;;;;;;;;;;;5.40;99.90;;;;;;5008964;28;19976;-77
2022/12/28 01:02:55;;;;;;;;;;;5.40;99.90;;;;;;5011477;28;19957;-78
2022/12/28 01:05:21;;;;;;;;;;;5.30;99.90;;;;;;4992397;28;19936;-78
2022/12/28 01:07:47;;;;;;;;;;;5.40;99.90;;;;;;5008733;28;20043;-78
2022/12/28 01:10:13;;;;;;;;;;;5.40;99.90;;;;;;5008638;28;19925;-78
2022/12/28 01:12:38;;;;;;;;;;;5.40;99.90;;;;;;5008347;28;19925;-78
2022/12/28 01:15:04;;;;;;;;;;;5.40;99.90;;;;;;5008142;28;19926;-78
2022/12/28 01:17:30;;;;;;;;;;;5.40;99.90;;;;;;5009857;28;19929;-78
2022/12/28 01:19:56;;;;;;;;;;;5.40;99.90;;;;;;5009468;28;20495;-78
2022/12/28 01:22:21;;;;;;;;;;;5.50;99.90;;;;;;5009794;28;19930;-78
2022/12/28 01:24:47;;;;;;;;;;;5.50;99.90;;;;;;5008157;28;19930;-78
2022/12/28 01:27:12;;;;;;;;;;;5.50;99.90;;;;;;5009796;28;19980;-78
2022/12/28 01:29:38;;;;;;;;;;;5.50;99.90;;;;;;5009719;28;19932;-79
2022/12/28 01:32:04;;;;;;;;;;;5.50;99.90;;;;;;5005754;28;19933;-78
2022/12/28 01:34:29;;;;;;;;;;;5.60;99.90;;;;;;5023631;28;19929;-78
2022/12/28 01:36:55;;;;;;;;;;;5.60;99.90;;;;;;5010416;28;19949;-78
2022/12/28 01:39:20;;;;;;;;;;;5.60;99.90;;;;;;5009926;28;20282;-78
2022/12/28 01:41:46;;;;;;;;;;;5.60;99.90;;;;;;5007463;28;19926;-78
2022/12/28 01:44:12;;;;;;;;;;;5.60;99.90;;;;;;5008479;28;19925;-77
2022/12/28 01:46:41;;;;;;;;;;;5.70;99.90;;;;;;5008518;28;19936;-77
2022/12/28 01:49:15;;;;;;;;;;;5.70;99.90;;;;;;5008261;28;19940;-78
2022/12/28 01:51:41;;;;;;;;;;;5.70;99.90;;;;;;5010072;28;19940;-78
2022/12/28 01:54:06;;;;;;;;;;;5.70;99.90;;;;;;5010992;28;19980;-78
2022/12/28 01:56:32;;;;;;;;;;;5.70;99.90;;;;;;5005857;28;20349;-78
2022/12/28 01:58:58;;;;;;;;;;;5.70;99.90;;;;;;5005660;28;20467;-78
2022/12/28 02:01:24;;;;;;;;;;;5.80;99.90;;;;;;5002044;28;20388;-78
2022/12/28 02:03:49;;;;;;;;;;;5.80;99.90;;;;;;5007622;28;20504;-78
2022/12/28 02:06:15;;;;;;;;;;;5.80;99.90;;;;;;5010348;28;20429;-78
2022/12/28 02:08:45;;;;;;;;;;;5.80;99.90;;;;;;5010094;28;19937;-77
2022/12/28 02:11:12;;;;;;;;;;;5.80;99.90;;;;;;5007867;28;19941;-78
2022/12/28 02:13:38;;;;;;;;;;;5.80;99.90;;;;;;5006895;28;19929;-78
2022/12/28 02:16:04;;;;;;;;;;;5.80;99.90;;;;;;5006910;28;19952;-78
2022/12/28 02:18:30;;;;;;;;;;;5.80;99.90;;;;;;5011405;28;19975;-78
2022/12/28 02:21:08;;;;;;;;;;;5.80;99.90;;;;;;5007802;28;19925;-77
2022/12/28 02:23:49;;;;;;;;;;;5.80;99.90;;;;;;5008737;28;19933;-77
2022/12/28 02:26:26;;;;;;;;;;;5.80;99.90;;;;;;5007064;28;19926;-77
2022/12/28 02:29:04;;;;;;;;;;;5.80;99.90;;;;;;5008930;28;19981;-78
2022/12/28 02:32:02;;;;;;;;;;;5.80;99.90;;;;;;5008168;28;20065;-77
2022/12/28 02:34:48;;;;;;;;;;;5.90;99.90;;;;;;4983580;28;19929;-77
2022/12/28 02:37:25;;;;;;;;;;;5.80;99.90;;;;;;4993368;28;19934;-78
2022/12/28 02:39:54;;;;;;;;;;;5.80;99.90;;;;;;5006490;28;20019;-77
2022/12/28 02:42:21;;;;;;;;;;;5.80;99.90;;;;;;5007479;28;19961;-77
2022/12/28 02:50:15;;;;;;;;;;;5.80;99.90;;;;;;5010545;28;19926;-77
2022/12/28 02:52:50;;;;;;;;;;;5.90;99.90;;;;;;5009197;28;19968;-77
2022/12/28 02:58:28;;;;;;;;;;;5.90;99.90;;;;;;5011840;28;20045;-78
2022/12/28 03:01:04;;;;;;;;;;;6.00;99.90;;;;;;5011529;28;19937;-78
2022/12/28 03:03:40;;;;;;;;;;;6.00;99.90;;;;;;5011493;28;20281;-77
2022/12/28 03:09:10;;;;;;;;;;;6.10;99.90;;;;;;5008666;28;19987;-78
2022/12/28 03:11:42;;;;;;;;;;;6.10;99.90;;;;;;5009605;28;19932;-78
2022/12/28 03:14:13;;;;;;;;;;;6.20;99.90;;;;;;5009608;28;19926;-78
2022/12/28 03:33:15;;;;;;;;;;;6.50;99.90;;;;;;5010250;28;19941;-78
2022/12/28 03:35:45;;;;;;;;;;;6.50;99.90;;;;;;5010261;28;19933;-76
2022/12/28 03:38:12;;;;;;;;;;;6.50;99.90;;;;;;5010308;28;19980;-76
2022/12/28 03:40:42;;;;;;;;;;;6.50;99.90;;;;;;5011022;28;19926;-76
2022/12/28 03:46:01;;;;;;;;;;;6.50;99.90;;;;;;5011626;28;19940;-76
2022/12/28 03:48:27;;;;;;;;;;;6.50;99.90;;;;;;5010867;28;21424;-76
2022/12/28 03:50:54;;;;;;;;;;;6.50;99.90;;;;;;5010943;28;19929;-76
2022/12/28 03:53:22;;;;;;;;;;;6.50;99.90;;;;;;5012286;28;19929;-76
2022/12/28 03:55:48;;;;;;;;;;;6.50;99.90;;;;;;5011082;28;20405;-77
2022/12/28 03:58:13;;;;;;;;;;;6.50;99.90;;;;;;5009254;28;19969;-75
2022/12/28 04:00:39;;;;;;;;;;;6.50;99.90;;;;;;5011315;28;19948;-76
2022/12/28 04:03:04;;;;;;;;;;;6.60;99.90;;;;;;5013326;28;19996;-76
2022/12/28 04:05:30;;;;;;;;;;;6.50;99.90;;;;;;5013731;28;19929;-75
2022/12/28 04:07:55;;;;;;;;;;;6.50;99.90;;;;;;5013670;28;19932;-76
2022/12/28 04:10:21;;;;;;;;;;;6.50;99.90;;;;;;5011823;28;19999;-76
2022/12/28 04:12:47;;;;;;;;;;;6.60;99.90;;;;;;5012208;28;19930;-76
2022/12/28 04:15:12;;;;;;;;;;;6.60;99.90;;;;;;5014860;28;19931;-76
2022/12/28 04:17:38;;;;;;;;;;;6.60;99.90;;;;;;5012222;28;19926;-77
2022/12/28 04:20:04;;;;;;;;;;;6.60;99.90;;;;;;5012924;28;19933;-76
2022/12/28 04:22:29;;;;;;;;;;;6.60;99.90;;;;;;5013007;28;19936;-76
2022/12/28 04:24:55;;;;;;;;;;;6.60;99.90;;;;;;5012526;28;19976;-76
2022/12/28 04:27:22;;;;;;;;;;;6.60;99.90;;;;;;5014261;28;19930;-76
2022/12/28 04:29:48;;;;;;;;;;;6.60;99.90;;;;;;5013782;28;19957;-76
2022/12/28 04:32:14;;;;;;;;;;;6.70;99.90;;;;;;5012883;28;19937;-76
2022/12/28 04:34:39;;;;;;;;;;;6.60;99.90;;;;;;5013495;28;19965;-76
2022/12/28 04:37:05;;;;;;;;;;;6.70;99.90;;;;;;5013935;28;19929;-78
2022/12/28 04:39:31;;;;;;;;;;;6.70;99.90;;;;;;5011534;28;20016;-76
2022/12/28 04:41:56;;;;;;;;;;;6.70;99.90;;;;;;5009505;28;19925;-77
2022/12/28 04:44:22;;;;;;;;;;;6.80;99.90;;;;;;5012846;28;19944;-78
2022/12/28 04:46:48;;;;;;;;;;;6.80;99.90;;;;;;5014607;28;19925;-77
2022/12/28 04:49:13;;;;;;;;;;;6.80;99.90;;;;;;5015408;28;19925;-77
2022/12/28 04:51:39;;;;;;;;;;;6.80;99.90;;;;;;5016601;28;19929;-77
2022/12/28 04:54:05;;;;;;;;;;;6.80;99.90;;;;;;5011946;28;19925;-77
2022/12/28 04:56:30;;;;;;;;;;;6.80;99.90;;;;;;5014998;28;19925;-77
2022/12/28 04:58:57;;;;;;;;;;;6.80;99.90;;;;;;5013719;28;19925;-77
2022/12/28 05:01:23;;;;;;;;;;;6.80;99.90;;;;;;5006152;28;19942;-77
2022/12/28 05:03:50;;;;;;;;;;;6.80;99.90;;;;;;5012590;28;19925;-77
2022/12/28 05:06:17;;;;;;;;;;;6.80;99.90;;;;;;5013614;28;19931;-77
2022/12/28 05:08:43;;;;;;;;;;;6.80;99.90;;;;;;5011548;28;19933;-77
2022/12/28 05:11:16;;;;;;;;;;;6.90;99.90;;;;;;5012721;28;19933;-77
2022/12/28 05:13:41;;;;;;;;;;;6.90;99.90;;;;;;5008636;28;20392;-77
2022/12/28 05:16:08;;;;;;;;;;;6.90;99.90;;;;;;5027016;28;19935;-78
2022/12/28 05:18:34;;;;;;;;;;;6.90;99.90;;;;;;5027760;28;19969;-78
2022/12/28 05:21:03;;;;;;;;;;;7.00;99.90;;;;;;5011381;28;19942;-77
2022/12/28 05:23:29;;;;;;;;;;;7.00;99.90;;;;;;5011434;28;19929;-77
2022/12/28 05:25:55;;;;;;;;;;;7.00;99.90;;;;;;5012413;28;19926;-78
2022/12/28 05:28:21;;;;;;;;;;;7.00;99.90;;;;;;5013733;28;20008;-79
2022/12/28 05:30:46;;;;;;;;;;;7.00;99.90;;;;;;5010352;28;20089;-78
2022/12/28 05:33:12;;;;;;;;;;;7.10;99.90;;;;;;5012080;28;20014;-79
2022/12/28 05:35:37;;;;;;;;;;;7.10;99.90;;;;;;5011241;28;19929;-79
2022/12/28 05:38:03;;;;;;;;;;;7.10;99.90;;;;;;5010765;28;19936;-79
2022/12/28 05:40:28;;;;;;;;;;;7.20;99.90;;;;;;5011972;28;19969;-79
2022/12/28 05:42:54;;;;;;;;;;;7.20;99.90;;;;;;5011264;28;19926;-79
2022/12/28 05:45:19;;;;;;;;;;;7.20;99.90;;;;;;5009105;28;19926;-79
2022/12/28 05:47:45;;;;;;;;;;;7.20;99.90;;;;;;5010491;28;19947;-79
2022/12/28 05:50:11;;;;;;;;;;;7.30;99.90;;;;;;5011749;28;19936;-79
2022/12/28 05:52:36;;;;;;;;;;;7.30;99.90;;;;;;5012392;28;19929;-79
2022/12/28 05:55:02;;;;;;;;;;;7.30;99.90;;;;;;5012397;28;20468;-79
2022/12/28 05:57:27;;;;;;;;;;;7.30;99.90;;;;;;5003177;28;19930;-79
2022/12/28 05:59:53;;;;;;;;;;;7.30;99.90;;;;;;5005462;28;19937;-79
2022/12/28 06:02:18;;;;;;;;;;;7.30;99.90;;;;;;5012426;28;19926;-79
2022/12/28 06:04:44;;;;;;;;;;;7.30;99.90;;;;;;5013215;28;20323;-78
2022/12/28 06:07:10;;;;;;;;;;;7.40;99.90;;;;;;5012071;28;19940;-78
2022/12/28 06:09:35;;;;;;;;;;;7.40;99.90;;;;;;5012284;28;20423;-79
2022/12/28 06:12:03;;;;;;;;;;;7.40;99.90;;;;;;5010328;28;20087;-79
2022/12/28 06:14:29;;;;;;;;;;;7.40;99.90;;;;;;5016486;28;19932;-79
2022/12/28 06:16:54;;;;;;;;;;;7.50;99.90;;;;;;5014202;28;19997;-79
2022/12/28 06:19:20;;;;;;;;;;;7.50;99.90;;;;;;5024971;28;19933;-79
2022/12/28 06:21:46;;;;;;;;;;;7.60;99.90;;;;;;5008109;28;19937;-79
2022/12/28 06:24:12;;;;;;;;;;;7.50;99.90;;;;;;5013913;28;19952;-79
2022/12/28 06:26:38;;;;;;;;;;;7.60;99.90;;;;;;5008331;28;19936;-77
2022/12/28 06:29:04;;;;;;;;;;;7.60;99.90;;;;;;5011529;28;19925;-78
2022/12/28 06:31:31;;;;;;;;;;;7.60;99.90;;;;;;5012572;28;19936;-78
2022/12/28 06:33:58;;;;;;;;;;;7.60;99.90;;;;;;5029345;28;19932;-80
2022/12/28 06:36:32;;;;;;;;;;;7.70;99.90;;;;;;5014801;28;19976;-79
2022/12/28 06:38:58;;;;;;;;;;;7.70;99.90;;;;;;5017544;28;20099;-78
2022/12/28 06:41:25;;;;;;;;;;;7.70;99.90;;;;;;5014974;28;20609;-78
2022/12/28 06:43:51;;;;;;;;;;;7.80;99.90;;;;;;5015250;28;19926;-76
2022/12/28 06:46:17;;;;;;;;;;;7.80;99.90;;;;;;5016746;28;19933;-76
2022/12/28 06:48:43;;;;;;;;;;;7.80;99.90;;;;;;5014475;28;20376;-76
2022/12/28 06:51:10;;;;;;;;;;;7.80;99.90;;;;;;5028959;28;19932;-76
2022/12/28 06:53:36;;;;;;;;;;;7.80;99.90;;;;;;5016209;28;19925;-76
2022/12/28 06:56:06;;;;;;;;;;;7.80;99.90;;;;;;5015990;28;19957;-76
2022/12/28 06:58:31;;;;;;;;;;;7.80;99.90;;;;;;5016074;28;19942;-76
2022/12/28 07:01:04;;;;;;;;;;;7.80;99.90;;;;;;5017199;28;19933;-76
2022/12/28 07:03:29;;;;;;;;;;;7.90;99.90;;;;;;5015021;28;20132;-76
2022/12/28 07:05:58;;;;;;;;;;;7.90;99.90;;;;;;5014555;28;19957;-76
2022/12/28 07:08:24;;;;;;;;;;;7.90;99.90;;;;;;5015703;28;19936;-76
2022/12/28 07:10:49;;;;;;;;;;;7.90;99.90;;;;;;5014929;28;19965;-76
2022/12/28 07:13:15;;;;;;;;;;;8.00;99.90;;;;;;4993722;28;20389;-77
2022/12/28 07:15:40;;;;;;;;;;;8.00;99.90;;;;;;5014581;28;19964;-77
2022/12/28 07:18:06;;;;;;;;;;;8.00;99.90;;;;;;5029948;28;19926;-77
2022/12/28 07:20:32;;;;;;;;;;;8.00;99.90;;;;;;5012172;28;19929;-77
2022/12/28 07:22:57;;;;;;;;;;;8.00;99.90;;;;;;5012014;28;19952;-77
2022/12/28 07:25:23;;;;;;;;;;;8.10;99.90;;;;;;4996115;28;20365;-77
2022/12/28 07:27:48;;;;;;;;;;;8.00;99.90;;;;;;5012415;28;19934;-77
2022/12/28 07:30:14;;;;;;;;;;;8.10;99.90;;;;;;5012633;28;19929;-78
2022/12/28 07:32:40;;;;;;;;;;;8.10;99.90;;;;;;5011858;28;19933;-77
2022/12/28 07:35:06;;;;;;;;;;;8.10;99.90;;;;;;4995996;28;19933;-77
2022/12/28 07:37:31;;;;;;;;;;;8.10;99.90;;;;;;5011911;28;20332;-77
2022/12/28 07:39:57;;;;;;;;;;;8.20;99.90;;;;;;5012953;28;19933;-77
2022/12/28 07:42:22;;;;;;;;;;;8.10;99.90;;;;;;5011120;28;19926;-77
2022/12/28 07:44:48;;;;;;;;;;;8.20;99.90;;;;;;5010896;28;19926;-77
2022/12/28 07:47:14;;;;;;;;;;;8.20;99.90;;;;;;5012000;28;19968;-77
2022/12/28 07:49:39;;;;;;;;;;;8.20;99.90;;;;;;5013938;28;20178;-77
2022/12/28 07:52:05;;;;;;;;;;;8.20;99.90;;;;;;5011281;28;19933;-78
2022/12/28 07:54:30;;;;;;;;;;;8.30;99.90;;;;;;5011540;28;20431;-78
2022/12/28 07:56:56;;;;;;;;;;;8.30;99.90;;;;;;5010359;28;19934;-78
2022/12/28 07:59:21;;;;;;;;;;;8.30;99.90;;;;;;5010788;28;19972;-78
2022/12/28 08:01:49;;;;;;;;;;;8.30;99.90;;;;;;5009792;28;19937;-78
2022/12/28 08:04:15;;;;;;;;;;;8.30;99.90;;;;;;4996914;28;19933;-77
2022/12/28 08:06:42;;;;;;;;;;;8.40;99.90;;;;;;5029287;28;19952;-77
2022/12/28 08:09:08;;;;;;;;;;;8.40;99.90;;;;;;5014735;28;19982;-78
2022/12/28 08:11:35;;;;;;;;;;;8.40;99.90;;;;;;4995226;28;19933;-77
2022/12/28 08:14:01;;;;;;;;;;;8.40;99.90;;;;;;5011885;28;19933;-77
2022/12/28 08:16:28;;;;;;;;;;;8.40;99.90;;;;;;5012463;28;19932;-76
2022/12/28 08:18:54;;;;;;;;;;;8.40;99.90;;;;;;4934478;28;1800279;-76
2022/12/28 08:21:23;;;;;;;;;;;8.40;99.90;;;;;;5029424;28;19932;-76
2022/12/28 08:23:48;;;;;;;;;;;8.40;99.90;;;;;;5017066;28;19997;-76
2022/12/28 08:26:16;;;;;;;;;;;8.30;99.90;;;;;;5019350;28;19926;-76
2022/12/28 08:28:42;;;;;;;;;;;8.40;99.90;;;;;;5018998;28;19926;-76
2022/12/28 08:31:08;;;;;;;;;;;8.40;99.90;;;;;;5028949;28;19944;-76
2022/12/28 08:33:35;;;;;;;;;;;8.40;99.90;;;;;;5021216;28;19929;-76
2022/12/28 08:36:00;;;;;;;;;;;8.40;99.90;;;;;;4989396;28;19925;-77
2022/12/28 08:38:26;;;;;;;;;;;8.40;99.90;;;;;;5018017;28;20020;-77
2022/12/28 08:40:59;;;;;;;;;;;8.40;99.90;;;;;;5019371;28;19937;-77
2022/12/28 08:43:28;;;;;;;;;;;8.40;99.90;;;;;;5018669;28;19926;-77
2022/12/28 08:45:57;;;;;;;;;;;8.40;99.90;;;;;;5018578;28;19989;-77
2022/12/28 08:48:23;;;;;;;;;;;8.40;99.90;;;;;;5025589;28;20447;-77
2022/12/28 08:50:48;;;;;;;;;;;8.40;99.90;;;;;;5018347;28;19933;-77
2022/12/28 08:53:14;;;;;;;;;;;8.40;99.90;;;;;;5017874;28;19926;-77
2022/12/28 08:55:39;;;;;;;;;;;8.40;99.90;;;;;;5001129;28;19941;-77
2022/12/28 08:58:05;;;;;;;;;;;8.40;99.90;;;;;;5020190;28;19983;-78
2022/12/28 09:00:30;;;;;;;;;;;8.40;99.90;;;;;;5018881;28;19930;-77
2022/12/28 09:02:59;;;;;;;;;;;8.40;99.90;;;;;;5002307;28;20016;-78
2022/12/28 09:05:25;;;;;;;;;;;8.40;99.90;;;;;;5002548;28;19940;-78
2022/12/28 09:07:51;;;;;;;;;;;8.50;99.90;;;;;;5018109;28;20020;-78
2022/12/28 09:10:16;;;;;;;;;;;8.50;99.90;;;;;;5018194;28;19929;-77
2022/12/28 09:12:42;;;;;;;;;;;8.50;99.90;;;;;;5017985;28;19970;-78
2022/12/28 09:15:08;;;;;;;;;;;8.50;99.90;;;;;;5018878;28;19933;-77
2022/12/28 09:17:33;;;;;;;;;;;8.50;99.90;;;;;;5017849;28;19926;-77
2022/12/28 09:19:59;;;;;;;;;;;8.50;99.90;;;;;;5017227;28;19932;-77
2022/12/28 09:22:25;;;;;;;;;;;8.50;99.90;;;;;;5018167;28;20423;-78
2022/12/28 09:24:50;;;;;;;;;;;8.50;99.90;;;;;;5017924;28;19929;-78
2022/12/28 09:27:16;;;;;;;;;;;8.60;99.90;;;;;;5002234;28;19936;-78
2022/12/28 09:29:41;;;;;;;;;;;8.60;99.90;;;;;;5014949;28;20293;-78
2022/12/28 09:32:07;;;;;;;;;;;8.60;99.90;;;;;;5017426;28;19933;-78
2022/12/28 09:34:34;;;;;;;;;;;8.60;99.90;;;;;;5019051;28;20005;-78
2022/12/28 09:37:00;;;;;;;;;;;8.60;99.90;;;;;;5018006;28;19925;-78
2022/12/28 09:39:26;;;;;;;;;;;8.60;99.90;;;;;;5018232;28;19926;-78
2022/12/28 09:42:12;;;;;;;;;;;8.60;99.90;;;;;;5016986;28;19930;-78
2022/12/28 09:44:47;;;;;;;;;;;8.70;99.90;;;;;;4988146;28;20000;-78
2022/12/28 09:47:28;;;;;;;;;;;8.70;99.90;;;;;;5018317;28;19936;-77
2022/12/28 09:49:53;;;;;;;;;;;8.70;99.90;;;;;;5018459;28;20151;-78
2022/12/28 09:52:19;;;;;;;;;;;8.70;99.90;;;;;;5017687;28;19957;-77
2022/12/28 09:54:44;;;;;;;;;;;8.70;99.90;;;;;;5019520;28;19976;-78
2022/12/28 09:57:15;;;;;;;;;;;8.70;99.90;;;;;;5002136;28;20048;-78
2022/12/28 09:59:40;;;;;;;;;;;8.80;99.90;;;;;;5032666;28;20264;-78
2022/12/28 10:02:14;;;;;;;;;;;8.70;99.90;;;;;;5016904;28;19925;-78
2022/12/28 10:04:40;;;;;;;;;;;8.80;99.90;;;;;;5016099;28;19961;-77
2022/12/28 10:07:08;;;;;;;;;;;8.80;99.90;;;;;;5015972;28;19968;-77
2022/12/28 10:09:34;;;;;;;;;;;8.70;99.90;;;;;;5016445;28;19936;-77
2022/12/28 10:12:10;;;;;;;;;;;8.80;99.90;;;;;;5033258;28;19925;-77
2022/12/28 10:14:35;;;;;;;;;;;8.80;99.90;;;;;;5015310;28;19936;-77
2022/12/28 10:17:01;;;;;;;;;;;8.80;99.90;;;;;;5014056;28;19961;-76
2022/12/28 10:19:28;;;;;;;;;;;8.80;99.90;;;;;;5012320;28;19926;-77
2022/12/28 10:21:59;;;;;;;;;;;8.80;99.90;;;;;;5016149;28;20361;-77
2022/12/28 10:24:25;;;;;;;;;;;8.80;99.90;;;;;;5014565;28;19933;-77
2022/12/28 10:26:51;;;;;;;;;;;8.80;99.90;;;;;;4983946;28;20381;-76
2022/12/28 10:29:19;;;;;;;;;;;8.80;99.90;;;;;;5017440;28;19964;-76
2022/12/28 10:31:54;;;;;;;;;;;8.80;99.90;;;;;;5017406;28;19925;-76
2022/12/28 10:34:21;;;;;;;;;;;8.90;99.90;;;;;;5032669;28;19925;-76
2022/12/28 10:36:48;;;;;;;;;;;8.80;99.90;;;;;;5017597;28;19959;-76
2022/12/28 10:39:22;;;;;;;;;;;8.90;99.90;;;;;;5016364;28;19931;-76
2022/12/28 10:41:48;;;;;;;;;;;8.90;99.90;;;;;;5018140;28;19926;-76
2022/12/28 10:44:17;;;;;;;;;;;8.90;99.90;;;;;;5018940;28;19936;-76
2022/12/28 10:46:50;;;;;;;;;;;8.90;99.90;;;;;;5014699;28;20470;-76
2022/12/28 10:49:16;;;;;;;;;;;8.80;99.90;;;;;;5031444;28;19930;-76
2022/12/28 10:51:56;;;;;;;;;;;8.90;99.90;;;;;;5017400;28;20035;-76
2022/12/28 10:54:23;;;;;;;;;;;8.90;99.90;;;;;;5014122;28;19937;-76
2022/12/28 10:56:49;;;;;;;;;;;8.90;99.90;;;;;;5018042;28;19949;-76
2022/12/28 10:59:25;;;;;;;;;;;8.90;99.90;;;;;;5017559;28;20471;-76
2022/12/28 11:01:51;;;;;;;;;;;8.90;99.90;;;;;;5001142;28;19972;-76
2022/12/28 11:04:21;;;;;;;;;;;8.90;99.90;;;;;;5018267;28;19949;-76
2022/12/28 11:06:53;;;;;;;;;;;8.90;99.90;;;;;;5016702;28;19926;-76
2022/12/28 11:09:25;;;;;;;;;;;8.90;99.90;;;;;;5017235;28;19960;-76
2022/12/28 11:11:52;;;;;;;;;;;8.90;99.90;;;;;;5033086;28;19969;-76
2022/12/28 11:14:36;;;;;;;;;;;8.90;99.90;;;;;;5018575;28;19948;-76
2022/12/28 11:17:28;;;;;;;;;;;8.90;99.90;;;;;;5008917;28;19933;-76
2022/12/28 11:19:54;;;;;;;;;;;8.90;99.90;;;;;;5017376;28;19936;-76
2022/12/28 11:22:22;;;;;;;;;;;8.90;99.90;;;;;;5021517;28;20297;-76
2022/12/28 11:24:48;;;;;;;;;;;9.00;99.90;;;;;;5021843;28;19932;-76
2022/12/28 11:27:15;;;;;;;;;;;8.90;99.90;;;;;;5037336;28;20048;-77
2022/12/28 11:29:43;;;;;;;;;;;9.00;99.90;;;;;;5018762;28;19967;-76
2022/12/28 11:32:14;;;;;;;;;;;9.00;99.90;;;;;;5020772;28;20036;-76
2022/12/28 11:34:40;;;;;;;;;;;9.00;99.90;;;;;;5020875;28;19941;-76
2022/12/28 11:37:11;;;;;;;;;;;9.00;99.90;;;;;;5003572;28;19941;-77
2022/12/28 11:39:45;;;;;;;;;;;9.00;99.90;;;;;;5019450;28;19926;-77
2022/12/28 11:42:11;;;;;;;;;;;9.00;99.90;;;;;;5021934;28;19926;-77
2022/12/28 11:44:37;;;;;;;;;;;9.00;99.90;;;;;;5020126;28;19967;-77
2022/12/28 11:47:08;;;;;;;;;;;9.00;99.90;;;;;;5036208;28;19925;-76
2022/12/28 11:49:34;;;;;;;;;;;9.00;99.90;;;;;;5015891;28;19945;-76
2022/12/28 11:52:15;;;;;;;;;;;9.00;99.90;;;;;;5017966;28;19925;-76
2022/12/28 11:54:53;;;;;;;;;;;9.00;99.90;;;;;;5019290;28;20384;-76
2022/12/28 11:57:51;;;;;;;;;;;9.00;99.90;;;;;;5021523;28;19932;-76
2022/12/28 12:00:19;;;;;;;;;;;9.00;99.90;;;;;;4995489;28;20264;-76
2022/12/28 12:02:51;;;;;;;;;;;9.00;99.90;;;;;;5019530;28;19977;-76
2022/12/28 12:05:38;;;;;;;;;;;8.90;99.90;;;;;;5021445;28;19941;-76
2022/12/28 12:08:16;;;;;;;;;;;8.90;99.90;;;;;;5002196;28;19980;-77
2022/12/28 12:10:43;;;;;;;;;;;8.90;99.90;;;;;;5018137;28;20012;-77
2022/12/28 12:13:29;;;;;;;;;;;9.00;99.90;;;;;;5015564;28;19932;-77
2022/12/28 12:16:05;;;;;;;;;;;8.90;99.90;;;;;;5016810;28;19933;-77
2022/12/28 12:18:37;;;;;;;;;;;9.00;99.90;;;;;;5019268;28;19966;-77
2022/12/28 12:21:06;;;;;;;;;;;8.90;99.90;;;;;;5013850;28;19929;-77
2022/12/28 12:23:35;;;;;;;;;;;8.90;99.90;;;;;;5018414;28;19936;-77
2022/12/28 12:26:19;;;;;;;;;;;8.90;99.90;;;;;;5020819;28;19932;-77
2022/12/28 12:28:51;;;;;;;;;;;8.90;99.90;;;;;;5005133;28;19933;-76
2022/12/28 12:31:22;;;;;;;;;;;8.90;99.90;;;;;;5003302;28;19929;-76
2022/12/28 12:33:49;;;;;;;;;;;8.90;99.90;;;;;;5020035;28;19936;-76
2022/12/28 12:36:15;;;;;;;;;;;8.90;99.90;;;;;;5020893;28;20037;-76
2022/12/28 12:38:50;;;;;;;;;;;8.90;99.90;;;;;;5035569;28;20004;-76
2022/12/28 12:41:34;;;;;;;;;;;9.00;99.90;;;;;;5019733;28;19980;-76
2022/12/28 12:44:09;;;;;;;;;;;8.90;99.90;;;;;;5021018;28;19925;-77
2022/12/28 12:46:54;;;;;;;;;;;8.90;99.90;;;;;;5019919;28;19980;-76
2022/12/28 12:49:35;;;;;;;;;;;8.90;99.90;;;;;;5018063;28;20016;-76
2022/12/28 12:52:05;;;;;;;;;;;8.90;99.90;;;;;;5012292;28;19933;-77
2022/12/28 12:54:49;;;;;;;;;;;8.90;99.90;;;;;;5017984;28;19996;-77
2022/12/28 12:57:19;;;;;;;;;;;8.90;99.90;;;;;;5020458;28;20055;-77
2022/12/28 12:59:54;;;;;;;;;;;9.00;99.90;;;;;;5034830;28;20412;-77
2022/12/28 13:02:30;;;;;;;;;;;8.90;99.90;;;;;;5018088;28;20004;-77
2022/12/28 13:04:55;;;;;;;;;;;8.90;99.90;;;;;;5020010;28;20338;-77
2022/12/28 13:07:22;;;;;;;;;;;8.90;99.90;;;;;;5034442;28;19952;-76
2022/12/28 13:09:49;;;;;;;;;;;8.90;99.90;;;;;;5035437;28;19972;-76
2022/12/28 13:12:16;;;;;;;;;;;8.90;99.90;;;;;;5033317;28;19929;-76
2022/12/28 13:14:45;;;;;;;;;;;8.90;99.90;;;;;;5002433;28;20474;-76
2022/12/28 13:17:21;;;;;;;;;;;8.90;99.90;;;;;;5034293;28;19925;-76
2022/12/28 13:19:47;;;;;;;;;;;8.90;99.90;;;;;;5019620;28;20274;-76
2022/12/28 13:22:25;;;;;;;;;;;8.90;99.90;;;;;;5018398;28;19929;-76
2022/12/28 13:24:51;;;;;;;;;;;8.90;99.90;;;;;;5019092;28;19936;-76
2022/12/28 13:27:18;;;;;;;;;;;9.00;99.90;;;;;;5018570;28;19929;-77
2022/12/28 13:29:49;;;;;;;;;;;9.00;99.90;;;;;;5019364;28;20140;-77
2022/12/28 13:32:24;;;;;;;;;;;9.00;99.90;;;;;;5018681;28;19930;-77
2022/12/28 13:34:49;;;;;;;;;;;9.00;99.90;;;;;;5019389;28;19926;-77
2022/12/28 13:37:15;;;;;;;;;;;9.00;99.90;;;;;;5019005;28;19925;-77
2022/12/28 13:39:41;;;;;;;;;;;9.00;99.90;;;;;;5018312;28;19986;-77
2022/12/28 13:42:17;;;;;;;;;;;9.00;99.90;;;;;;5016152;28;19925;-76
2022/12/28 13:44:44;;;;;;;;;;;9.00;99.90;;;;;;5026351;28;19925;-77
2022/12/28 13:47:16;;;;;;;;;;;9.00;99.90;;;;;;5017723;28;20025;-77
2022/12/28 13:49:44;;;;;;;;;;;9.00;99.90;;;;;;5017961;28;20051;-77
2022/12/28 13:52:11;;;;;;;;;;;9.00;99.90;;;;;;5017445;28;19926;-77
2022/12/28 13:54:37;;;;;;;;;;;9.00;99.90;;;;;;5017417;28;20016;-77
2022/12/28 13:57:04;;;;;;;;;;;9.00;99.90;;;;;;5013204;28;20407;-77
2022/12/28 13:59:30;;;;;;;;;;;9.00;99.90;;;;;;5012473;28;20416;-77
2022/12/28 14:01:55;;;;;;;;;;;9.00;99.90;;;;;;5008375;28;20392;-78
2022/12/28 14:04:23;;;;;;;;;;;9.00;99.90;;;;;;4999819;28;19926;-78
2022/12/28 14:06:49;;;;;;;;;;;9.00;99.90;;;;;;5016185;28;19926;-78
2022/12/28 14:09:15;;;;;;;;;;;9.00;99.90;;;;;;5000919;28;19936;-78
2022/12/28 14:11:42;;;;;;;;;;;9.00;99.90;;;;;;5017299;28;19948;-78
2022/12/28 14:14:08;;;;;;;;;;;9.00;99.90;;;;;;5016865;28;19993;-77
2022/12/28 14:16:34;;;;;;;;;;;9.00;99.90;;;;;;4998773;28;19926;-77
2022/12/28 14:19:00;;;;;;;;;;;8.90;99.90;;;;;;5019121;28;20004;-77
2022/12/28 14:21:33;;;;;;;;;;;8.90;99.90;;;;;;5015529;28;20076;-77
2022/12/28 14:24:03;;;;;;;;;;;8.90;99.90;;;;;;5014265;28;20307;-78
2022/12/28 14:26:29;;;;;;;;;;;8.90;99.90;;;;;;4999194;28;20012;-78
2022/12/28 14:28:55;;;;;;;;;;;8.90;99.90;;;;;;5015734;28;20016;-78
2022/12/28 14:31:23;;;;;;;;;;;8.90;99.90;;;;;;5016672;28;19968;-77
2022/12/28 14:33:53;;;;;;;;;;;8.90;99.90;;;;;;5032084;28;19926;-77
2022/12/28 14:36:21;;;;;;;;;;;8.90;99.90;;;;;;4988674;28;19933;-78
2022/12/28 14:38:48;;;;;;;;;;;8.80;99.90;;;;;;5031603;28;19936;-78
2022/12/28 14:41:19;;;;;;;;;;;8.90;99.90;;;;;;5017570;28;19926;-78
2022/12/28 14:43:50;;;;;;;;;;;8.90;99.90;;;;;;5033608;28;19936;-78
2022/12/28 14:46:17;;;;;;;;;;;8.80;99.90;;;;;;5022960;28;19926;-78
2022/12/28 14:48:44;;;;;;;;;;;8.80;99.90;;;;;;5013809;28;19949;-78
2022/12/28 14:51:15;;;;;;;;;;;8.90;99.90;;;;;;4987081;28;19948;-79
2022/12/28 14:53:42;;;;;;;;;;;8.90;99.90;;;;;;5019686;28;19929;-79
2022/12/28 14:56:10;;;;;;;;;;;8.90;99.90;;;;;;5021971;28;19940;-79
2022/12/28 14:58:40;;;;;;;;;;;8.90;99.90;;;;;;5020601;28;19930;-79
2022/12/28 15:01:08;;;;;;;;;;;8.90;99.90;;;;;;5020093;28;19957;-79
2022/12/28 15:03:52;;;;;;;;;;;8.80;99.90;;;;;;5036803;28;19925;-79
2022/12/28 15:06:18;;;;;;;;;;;8.90;99.90;;;;;;5024549;28;19992;-79
2022/12/28 15:08:51;;;;;;;;;;;8.90;99.90;;;;;;5037003;28;19954;-79